Wetterdaten: aktuell Sonntag, 06.09.2026 13:15
Datum Zeit Temp. I. Temp. A. Solar Gartenhaus 3 Temp4 neu Wetterh.5 Temp. Wind Feuchte A. Luftdruck Regen Wind Richtung Richtung Windböen
06.09.2026 13:15 23,5 °C 26,1 °C 56,6 °C 22,5 °C 22,4 °C 25,5 °C 29,7 °C 49 % 1022,8 hPa 0,0 mm 8,1 km/h SW 225 ° 10,0 km/h
06.09.2026 12:15 23,2 °C 24,9 °C 53,7 °C 22,3 °C 21,9 °C 24,2 °C 28,6 °C 52 % 1023,1 hPa 0,0 mm 6,4 km/h SW 225 ° 9,5 km/h
06.09.2026 11:15 23,0 °C 23,7 °C 50,0 °C 22,1 °C 21,2 °C 22,9 °C 27,2 °C 56 % 1023,6 hPa 0,2 mm 5,8 km/h W-SW 247 ° 3,7 km/h
06.09.2026 10:15 23,4 °C 21,9 °C 45,0 °C 22,3 °C 21,3 °C 20,9 °C 26,6 °C 65 % 1023,8 hPa 0,0 mm 3,7 km/h W-SW 247 ° 5,4 km/h
06.09.2026 09:15 23,6 °C 20,0 °C 38,0 °C 22,5 °C 21,0 °C 19,0 °C 25,6 °C 70 % 1023,5 hPa 0,0 mm 2,5 km/h SW 225 ° 3,3 km/h
06.09.2026 08:15 23,6 °C 15,6 °C 29,7 °C 22,5 °C 20,3 °C 15,5 °C 22,3 °C 88 % 1023,1 hPa 0,0 mm 0,0 km/h W 270 ° 0,0 km/h
06.09.2026 07:15 23,7 °C 13,5 °C 29,8 °C 22,5 °C 20,6 °C 13,6 °C 13,8 °C 88 % 1022,5 hPa 0,0 mm 0,0 km/h NO 45 ° 0,0 km/h
06.09.2026 06:15 23,7 °C 13,2 °C 30,1 °C 22,6 °C 20,2 °C 13,1 °C 12,8 °C 87 % 1022,4 hPa 0,0 mm 0,0 km/h NO 45 ° 0,0 km/h
06.09.2026 05:15 23,9 °C 13,7 °C 30,5 °C 22,8 °C 20,5 °C 13,5 °C 13,4 °C 87 % 1021,9 hPa 0,0 mm 0,0 km/h NO 45 ° 0,0 km/h
06.09.2026 04:15 24,0 °C 13,9 °C 30,6 °C 22,9 °C 20,9 °C 14,4 °C 13,3 °C 85 % 1021,9 hPa 0,0 mm 0,0 km/h W-SW 247 ° 0,0 km/h
06.09.2026 03:15 24,2 °C 14,7 °C 30,8 °C 23,0 °C 21,3 °C 14,4 °C 14,0 °C 87 % 1021,7 hPa 0,0 mm 0,2 km/h W-SW 247 ° 0,0 km/h
06.09.2026 02:15 24,3 °C 15,3 °C 31,3 °C 23,1 °C 21,8 °C 15,3 °C 15,1 °C 87 % 1021,4 hPa 0,0 mm 0,0 km/h SW 225 ° 0,0 km/h
06.09.2026 01:15 24,4 °C 14,8 °C 31,6 °C 23,2 °C 22,0 °C 14,7 °C 14,5 °C 87 % 1021,2 hPa 0,0 mm 0,6 km/h W-SW 247 ° 0,0 km/h
06.09.2026 00:15 24,7 °C 15,3 °C 32,0 °C 23,5 °C 22,5 °C 15,1 °C 15,1 °C 86 % 1021,4 hPa 0,0 mm 0,4 km/h O-NO 67 ° 2,5 km/h
05.09.2026 23:15 24,8 °C 15,9 °C 32,4 °C 23,7 °C 23,0 °C 15,6 °C 15,5 °C 85 % 1021,1 hPa 0,0 mm 1,7 km/h O-NO 67 ° 0,0 km/h
05.09.2026 22:15 25,0 °C 17,0 °C 32,9 °C 23,8 °C 23,6 °C 16,7 °C 16,4 °C 82 % 1020,7 hPa 0,0 mm 0,0 km/h SW 225 ° 0,0 km/h
05.09.2026 21:15 25,0 °C 18,3 °C 33,6 °C 23,9 °C 23,9 °C 17,9 °C 17,7 °C 79 % 1020,1 hPa 0,0 mm 1,2 km/h W-NW 292 ° 2,1 km/h
05.09.2026 20:15 25,1 °C 19,8 °C 35,4 °C 23,9 °C 23,8 °C 19,5 °C 19,4 °C 74 % 1019,3 hPa 0,0 mm 0,8 km/h SW 225 ° 2,3 km/h
05.09.2026 19:15 25,1 °C 21,7 °C 43,6 °C 24,0 °C 24,2 °C 21,3 °C 21,6 °C 68 % 1018,5 hPa 0,0 mm 1,2 km/h SW 225 ° 0,0 km/h
05.09.2026 18:15 25,0 °C 22,9 °C 52,3 °C 23,8 °C 24,1 °C 22,6 °C 25,7 °C 63 % 1018,2 hPa 0,0 mm 4,8 km/h SW 225 ° 0,0 km/h
05.09.2026 17:15 24,7 °C 23,6 °C 53,9 °C 23,5 °C 23,4 °C 23,2 °C 28,0 °C 63 % 1017,9 hPa 0,0 mm 8,5 km/h W-SW 247 ° 10,8 km/h
05.09.2026 16:15 24,4 °C 24,3 °C 52,4 °C 23,4 °C 23,1 °C 24,0 °C 29,7 °C 60 % 1018,2 hPa 0,0 mm 6,4 km/h W-SW 247 ° 7,3 km/h
05.09.2026 15:15 24,2 °C 22,9 °C 45,9 °C 23,3 °C 22,8 °C 22,5 °C 25,6 °C 62 % 1018,2 hPa 0,0 mm 7,5 km/h W-SW 247 ° 7,1 km/h
05.09.2026 14:15 24,5 °C 22,2 °C 44,2 °C 23,3 °C 22,9 °C 21,8 °C 22,3 °C 59 % 1018,8 hPa 0,0 mm 9,1 km/h W-SW 247 ° 8,3 km/h
05.09.2026 14:00 24,5 °C 22,5 °C 46,0 °C 23,4 °C 23,0 °C 21,9 °C 22,6 °C 58 % 1018,8 hPa 0,0 mm 8,5 km/h W-SW 247 ° 10,4 km/h
_ Min-Zeit 11:10 06:00 08:45 10:55 06:40 06:00 06:00 13:00 17:20 - 19:45 - - 18:15
Minimum _ 23,0 °C 13,2 °C 25,4 °C 22,0 °C 20,0 °C 13,1 °C 12,8 °C 48 % 1017,8 hPa - 0,0 km/h - - 0,0 km/h
_ Max-Zeit 19:55 13:10 13:15 18:25 18:35 13:10 12:45 06:20 10:20 11:00 10:55 - - 11:00
Maximum _ 25,2 °C 26,2 °C 56,6 °C 24,6 °C 24,2 °C 25,6 °C 30,3 °C 88 % 1023,9 hPa 0,2 mm 10,8 km/h
W-SW
- - 19,7 km/h
W-SW
Durchschnitt _ 24,2 °C 19,1 °C 39,5 °C 23,1 °C 22,2 °C 18,7 °C 20,6 °C 73 % 1020,9 hPa #0,2 mm 3,4 km/h W-SW - 4,4 km/h